createdAt,value
2023-01-26T00:02:10.193Z,18.60
2023-01-26T00:04:37.839Z,17.55
2023-01-26T00:07:05.582Z,21.95
2023-01-26T00:09:33.527Z,21.13
2023-01-26T00:12:01.289Z,22.02
2023-01-26T00:14:49.034Z,22.67
2023-01-26T00:17:25.900Z,17.50
2023-01-26T00:19:55.277Z,21.02
2023-01-26T00:22:23.846Z,19.98
2023-01-26T00:24:51.410Z,22.38
2023-01-26T00:27:19.300Z,24.23
2023-01-26T00:29:47.212Z,23.52
2023-01-26T00:32:14.931Z,24.02
2023-01-26T00:34:44.091Z,21.15
2023-01-26T00:37:11.770Z,23.73
2023-01-26T00:39:39.355Z,21.52
2023-01-26T00:42:14.179Z,22.05
2023-01-26T00:44:43.341Z,20.25
2023-01-26T00:47:12.895Z,19.67
2023-01-26T00:49:40.911Z,20.40
2023-01-26T00:52:10.091Z,21.20
2023-01-26T00:54:37.821Z,22.25
2023-01-26T00:57:05.754Z,22.13
2023-01-26T00:59:33.357Z,23.45
2023-01-26T01:02:02.597Z,26.02
2023-01-26T01:04:30.907Z,23.15
2023-01-26T01:06:58.600Z,23.70
2023-01-26T01:09:27.832Z,21.90
2023-01-26T01:11:55.391Z,22.52
2023-01-26T01:14:23.193Z,23.38
2023-01-26T01:16:50.940Z,24.85
2023-01-26T01:19:19.348Z,23.17
2023-01-26T01:21:47.146Z,25.45
2023-01-26T01:24:15.080Z,25.95
2023-01-26T01:26:44.051Z,22.35
2023-01-26T01:29:14.252Z,19.23
2023-01-26T01:31:43.308Z,23.80
2023-01-26T01:34:10.971Z,27.70
2023-01-26T01:36:38.647Z,27.52
2023-01-26T01:39:06.358Z,26.90
2023-01-26T01:41:34.031Z,22.95
2023-01-26T01:44:17.724Z,22.73
2023-01-26T01:46:50.076Z,22.75
2023-01-26T01:49:21.268Z,22.38
2023-01-26T01:51:54.595Z,25.30
2023-01-26T01:54:27.709Z,24.77
2023-01-26T01:56:59.119Z,24.30
2023-01-26T01:59:28.303Z,27.30
2023-01-26T02:01:57.560Z,22.55
2023-01-26T02:04:27.297Z,25.23
2023-01-26T02:06:57.094Z,25.98
2023-01-26T02:09:50.078Z,25.10
2023-01-26T02:12:20.619Z,24.23
2023-01-26T02:14:51.393Z,28.33
2023-01-26T02:17:19.045Z,26.38
2023-01-26T02:19:54.017Z,26.42
2023-01-26T02:22:35.842Z,23.77
2023-01-26T02:25:13.763Z,24.55
2023-01-26T02:27:43.021Z,23.20
2023-01-26T02:30:13.390Z,23.48
2023-01-26T02:32:40.967Z,23.55
2023-01-26T02:35:09.355Z,22.65
2023-01-26T02:37:36.904Z,19.00
2023-01-26T02:40:12.205Z,20.15
2023-01-26T02:42:38.962Z,24.50
2023-01-26T02:45:09.522Z,21.27
2023-01-26T02:47:37.075Z,20.08
2023-01-26T02:50:04.626Z,25.45
2023-01-26T02:52:32.242Z,18.77
2023-01-26T02:55:17.882Z,24.20
2023-01-26T02:57:45.891Z,20.20
2023-01-26T03:00:18.855Z,18.70
2023-01-26T03:02:47.700Z,20.13
2023-01-26T03:05:15.315Z,20.88
2023-01-26T03:07:42.947Z,18.33
2023-01-26T03:10:12.454Z,17.98
2023-01-26T03:12:40.474Z,18.77
2023-01-26T03:15:26.996Z,18.55
2023-01-26T03:18:33.542Z,16.17
2023-01-26T03:21:19.583Z,16.83
2023-01-26T03:24:05.161Z,22.70
2023-01-26T03:26:50.268Z,19.92
2023-01-26T03:29:17.888Z,20.80
2023-01-26T03:31:45.676Z,21.90
2023-01-26T03:34:14.795Z,22.17
2023-01-26T03:36:43.132Z,21.77
2023-01-26T03:39:31.097Z,21.40
2023-01-26T03:42:16.399Z,25.17
2023-01-26T03:45:01.574Z,24.73
2023-01-26T03:47:46.891Z,24.92
2023-01-26T03:50:33.487Z,23.65
2023-01-26T03:53:18.899Z,25.25
2023-01-26T03:56:04.216Z,24.98
2023-01-26T03:58:31.740Z,20.02
2023-01-26T04:00:59.304Z,23.75
2023-01-26T04:03:44.437Z,21.30
2023-01-26T04:06:31.140Z,21.23
2023-01-26T04:08:58.614Z,20.90
2023-01-26T04:11:26.126Z,18.60
2023-01-26T04:14:10.893Z,21.05
2023-01-26T04:16:56.290Z,18.88
2023-01-26T04:19:41.652Z,19.67
2023-01-26T04:22:10.490Z,19.65
2023-01-26T04:24:37.993Z,21.10
2023-01-26T04:27:05.469Z,19.85
2023-01-26T04:29:32.991Z,18.80
2023-01-26T04:32:01.463Z,18.88
2023-01-26T04:34:28.965Z,17.75
2023-01-26T04:36:56.584Z,17.42
2023-01-26T04:39:25.534Z,15.40
2023-01-26T04:41:53.002Z,16.70
2023-01-26T04:44:20.541Z,16.33
2023-01-26T04:46:48.821Z,15.48
2023-01-26T04:49:16.330Z,12.05
2023-01-26T04:51:43.885Z,11.43
2023-01-26T04:54:11.356Z,11.10
2023-01-26T04:56:40.220Z,10.38
2023-01-26T04:59:08.609Z,9.30
2023-01-26T05:01:36.267Z,8.85
2023-01-26T05:04:06.061Z,9.35
2023-01-26T05:06:33.759Z,9.15
2023-01-26T05:09:01.358Z,8.38
2023-01-26T05:11:28.949Z,7.32
2023-01-26T05:13:58.112Z,8.70
2023-01-26T05:16:25.849Z,6.80
2023-01-26T05:18:54.409Z,9.07
2023-01-26T05:21:24.564Z,8.50
2023-01-26T05:23:52.269Z,8.63
2023-01-26T05:26:19.817Z,7.13
2023-01-26T05:28:47.468Z,7.63
2023-01-26T05:31:16.278Z,7.20
2023-01-26T05:33:43.753Z,8.18
2023-01-26T05:36:11.332Z,7.25
2023-01-26T05:38:38.811Z,6.75
2023-01-26T05:41:08.119Z,6.78
2023-01-26T05:43:35.655Z,8.60
2023-01-26T05:46:03.235Z,7.63
2023-01-26T05:48:32.098Z,10.32
2023-01-26T05:50:59.753Z,10.27
2023-01-26T05:53:27.951Z,12.35
2023-01-26T05:55:55.445Z,9.52
2023-01-26T05:58:23.001Z,9.65
2023-01-26T06:00:50.543Z,11.52
2023-01-26T06:03:18.243Z,10.90
2023-01-26T06:05:53.596Z,10.63
2023-01-26T06:08:21.165Z,9.18
2023-01-26T06:10:48.749Z,9.90
2023-01-26T06:13:16.256Z,11.43
2023-01-26T06:15:43.745Z,13.57
2023-01-26T06:18:11.431Z,14.43
2023-01-26T06:20:38.910Z,10.13
2023-01-26T06:23:11.705Z,12.82
2023-01-26T06:28:07.868Z,8.10
2023-01-26T06:30:35.677Z,10.55
2023-01-26T06:33:03.283Z,10.38
2023-01-26T06:35:30.790Z,10.15
2023-01-26T06:37:58.257Z,11.75
2023-01-26T06:40:27.053Z,14.45
2023-01-26T06:42:54.630Z,12.82
2023-01-26T06:45:22.250Z,10.43
2023-01-26T06:47:51.072Z,9.48
2023-01-26T06:50:20.666Z,12.07
2023-01-26T06:52:51.393Z,9.02
2023-01-26T06:55:23.743Z,9.52
2023-01-26T06:57:52.558Z,10.98
2023-01-26T07:00:20.837Z,10.43
2023-01-26T07:02:48.304Z,10.48
2023-01-26T07:05:15.775Z,10.90
2023-01-26T07:07:43.269Z,11.18
2023-01-26T07:10:11.878Z,10.30
2023-01-26T07:12:41.582Z,9.07
2023-01-26T07:15:11.879Z,10.80
2023-01-26T07:17:39.625Z,11.65
2023-01-26T07:20:08.448Z,9.38
2023-01-26T07:22:36.117Z,8.63
2023-01-26T07:25:03.713Z,11.00
2023-01-26T07:27:31.251Z,9.13
2023-01-26T07:29:58.746Z,9.13
2023-01-26T07:32:27.640Z,10.68
2023-01-26T07:34:55.144Z,9.27
2023-01-26T07:37:22.677Z,7.60
2023-01-26T07:39:50.673Z,8.50
2023-01-26T07:42:18.209Z,7.97
2023-01-26T07:44:45.832Z,9.38
2023-01-26T07:47:14.608Z,8.32
2023-01-26T07:49:43.467Z,7.35
2023-01-26T07:52:10.973Z,8.23
2023-01-26T07:54:38.442Z,9.68
2023-01-26T07:57:08.265Z,7.72
2023-01-26T07:59:35.907Z,8.52
2023-01-26T08:02:03.486Z,8.25
2023-01-26T08:04:31.057Z,7.65
2023-01-26T08:06:59.904Z,6.85
2023-01-26T08:09:27.580Z,5.78
2023-01-26T08:11:57.558Z,8.07
2023-01-26T08:14:25.136Z,6.28
2023-01-26T08:16:52.773Z,15.43
2023-01-26T08:19:20.284Z,13.25
2023-01-26T08:21:47.842Z,14.30
2023-01-26T08:24:16.784Z,12.05
2023-01-26T08:26:44.327Z,10.23
2023-01-26T08:29:11.942Z,9.75
2023-01-26T08:31:39.533Z,9.88
2023-01-26T08:34:07.078Z,8.15
2023-01-26T08:36:34.567Z,8.10
2023-01-26T08:39:02.737Z,8.65
2023-01-26T08:41:32.944Z,7.80
2023-01-26T08:44:00.539Z,7.72
2023-01-26T08:46:28.246Z,9.55
2023-01-26T08:48:55.913Z,12.95
2023-01-26T08:51:23.484Z,12.48
2023-01-26T08:53:51.582Z,11.65
2023-01-26T08:56:19.077Z,9.60
2023-01-26T08:58:48.679Z,7.30
2023-01-26T09:01:17.744Z,8.60
2023-01-26T09:03:45.613Z,8.63
2023-01-26T09:06:15.823Z,9.48
2023-01-26T09:08:43.613Z,8.30
2023-01-26T09:11:11.182Z,9.88
2023-01-26T09:13:40.025Z,9.57
2023-01-26T09:16:14.081Z,7.65
2023-01-26T09:18:41.588Z,7.93
2023-01-26T09:21:10.691Z,8.45
2023-01-26T09:23:38.763Z,7.43
2023-01-26T09:26:06.480Z,9.18
2023-01-26T09:28:34.035Z,8.63
2023-01-26T09:31:05.446Z,9.77
2023-01-26T09:33:34.718Z,12.25
2023-01-26T09:36:06.397Z,9.50
2023-01-26T09:38:34.256Z,9.82
2023-01-26T09:41:07.897Z,10.18
2023-01-26T09:43:41.597Z,10.57
2023-01-26T09:46:21.539Z,8.93
2023-01-26T09:49:02.773Z,8.75
2023-01-26T09:51:35.266Z,9.63
2023-01-26T09:54:07.360Z,11.07
2023-01-26T09:56:35.185Z,12.60
2023-01-26T09:59:06.949Z,9.65
2023-01-26T10:01:41.645Z,8.30
2023-01-26T10:04:23.598Z,12.85
2023-01-26T10:06:54.447Z,8.70
2023-01-26T10:09:24.984Z,9.00
2023-01-26T10:11:55.622Z,9.18
2023-01-26T10:14:32.895Z,9.32
2023-01-26T10:17:02.880Z,9.73
2023-01-26T10:19:37.495Z,9.60
2023-01-26T10:22:08.891Z,9.00
2023-01-26T10:24:36.652Z,8.02
2023-01-26T10:27:14.047Z,8.88
2023-01-26T10:29:41.654Z,11.02
2023-01-26T10:32:15.306Z,9.80
2023-01-26T10:34:46.373Z,10.15
2023-01-26T10:37:21.793Z,10.75
2023-01-26T10:40:09.587Z,10.63
2023-01-26T10:42:38.652Z,10.23
2023-01-26T10:45:24.057Z,9.55
2023-01-26T10:48:04.349Z,10.48
2023-01-26T10:50:33.436Z,12.10
2023-01-26T10:53:02.816Z,11.07
2023-01-26T10:55:31.793Z,10.57
2023-01-26T10:57:59.644Z,9.52
2023-01-26T11:00:30.241Z,9.48
2023-01-26T11:03:06.050Z,12.15
2023-01-26T11:05:35.030Z,10.57
2023-01-26T11:08:03.657Z,11.63
2023-01-26T11:10:33.379Z,11.85
2023-01-26T11:13:12.863Z,10.25
2023-01-26T11:15:42.520Z,10.98
2023-01-26T11:18:24.291Z,10.68
2023-01-26T11:28:46.499Z,11.23
2023-01-26T11:34:58.752Z,9.05
2023-01-26T11:38:16.837Z,10.60
2023-01-26T11:48:46.741Z,13.82
2023-01-26T12:07:21.019Z,9.40
2023-01-26T12:22:22.717Z,7.57
2023-01-26T12:26:06.371Z,9.20
2023-01-26T12:29:13.338Z,9.70
2023-01-26T12:32:16.249Z,9.32
2023-01-26T12:34:44.046Z,10.45
2023-01-26T12:37:31.918Z,8.70
2023-01-26T12:40:12.229Z,8.77
2023-01-26T12:42:46.086Z,9.35
2023-01-26T12:45:19.390Z,17.55
2023-01-26T12:47:53.391Z,22.10
2023-01-26T12:50:28.869Z,13.38
2023-01-26T12:53:02.510Z,10.55
2023-01-26T12:55:36.097Z,9.13
2023-01-26T12:58:13.967Z,10.15
2023-01-26T13:00:53.227Z,10.32
2023-01-26T13:03:25.147Z,10.38
2023-01-26T13:05:59.553Z,9.73
2023-01-26T13:08:53.520Z,10.50
2023-01-26T13:11:43.269Z,10.88
2023-01-26T13:14:35.458Z,9.60
2023-01-26T13:17:49.281Z,9.68
2023-01-26T13:20:49.370Z,11.30
2023-01-26T13:23:40.279Z,12.27
2023-01-26T13:26:19.403Z,13.15
2023-01-26T13:28:48.376Z,10.43
2023-01-26T13:34:30.646Z,13.23
2023-01-26T13:37:07.993Z,11.95
2023-01-26T13:39:38.577Z,11.77
2023-01-26T13:42:28.447Z,11.63
2023-01-26T13:45:02.461Z,10.95
2023-01-26T13:47:37.846Z,10.63
2023-01-26T13:50:24.365Z,10.63
2023-01-26T13:52:53.693Z,11.68
2023-01-26T13:55:26.186Z,9.43
2023-01-26T13:58:12.979Z,9.70
2023-01-26T14:00:44.669Z,11.75
2023-01-26T14:03:23.415Z,10.75
2023-01-26T14:06:00.030Z,13.55
2023-01-26T14:08:29.245Z,11.23
2023-01-26T14:10:58.117Z,11.95
2023-01-26T14:13:35.090Z,13.80
2023-01-26T14:16:08.033Z,10.68
2023-01-26T14:22:18.687Z,9.73
2023-01-26T14:24:49.973Z,10.00
2023-01-26T14:27:30.387Z,12.77
2023-01-26T14:29:58.849Z,11.52
2023-01-26T14:32:29.806Z,8.70
2023-01-26T14:34:59.319Z,12.70
2023-01-26T14:37:29.528Z,10.23
2023-01-26T14:40:21.049Z,10.15
2023-01-26T14:42:51.467Z,11.23
2023-01-26T14:45:24.319Z,9.38
2023-01-26T14:50:27.625Z,11.07
2023-01-26T14:52:57.229Z,9.93
2023-01-26T14:55:28.305Z,11.90
2023-01-26T14:57:56.351Z,12.73
2023-01-26T15:00:28.165Z,11.98
2023-01-26T15:02:58.111Z,12.73
2023-01-26T15:05:34.403Z,13.27
2023-01-26T15:08:05.649Z,13.25
2023-01-26T15:10:38.731Z,16.45
2023-01-26T15:13:21.120Z,13.30
2023-01-26T15:16:05.361Z,14.75
2023-01-26T15:18:44.647Z,19.85
2023-01-26T15:21:16.068Z,15.70
2023-01-26T15:23:47.334Z,16.52
2023-01-26T15:26:26.471Z,15.82
2023-01-26T15:28:56.643Z,12.85
2023-01-26T15:31:30.206Z,16.52
2023-01-26T15:34:01.613Z,17.15
2023-01-26T15:36:35.601Z,15.48
2023-01-26T15:39:13.672Z,15.55
2023-01-26T15:41:41.732Z,16.10
2023-01-26T15:44:15.662Z,14.95
2023-01-26T15:46:43.460Z,12.90
2023-01-26T15:49:11.308Z,16.13
2023-01-26T15:51:39.187Z,14.00
2023-01-26T15:54:08.428Z,15.82
2023-01-26T15:56:36.565Z,14.40
2023-01-26T15:59:04.729Z,13.02
2023-01-26T16:01:32.800Z,16.58
2023-01-26T16:04:00.694Z,14.60
2023-01-26T16:06:30.028Z,14.93
2023-01-26T16:08:58.545Z,16.23
2023-01-26T16:11:32.254Z,14.00
2023-01-26T16:14:04.312Z,14.52
2023-01-26T16:16:32.922Z,15.73
2023-01-26T16:19:00.757Z,15.52
2023-01-26T16:21:33.319Z,12.90
2023-01-26T16:24:01.836Z,16.42
2023-01-26T16:26:32.495Z,14.57
2023-01-26T16:29:00.484Z,16.08
2023-01-26T16:31:31.968Z,15.48
2023-01-26T16:34:01.061Z,14.25
2023-01-26T16:36:29.791Z,12.75
2023-01-26T16:38:58.077Z,14.23
2023-01-26T16:41:27.863Z,14.60
2023-01-26T16:43:59.681Z,16.63
2023-01-26T16:46:29.107Z,14.05
2023-01-26T16:48:57.836Z,15.80
2023-01-26T16:51:28.175Z,15.80
2023-01-26T16:53:57.084Z,16.75
2023-01-26T16:56:26.455Z,18.05
2023-01-26T16:58:54.190Z,13.68
2023-01-26T17:01:28.712Z,17.00
2023-01-26T17:03:57.483Z,14.30
2023-01-26T17:06:25.527Z,16.00
2023-01-26T17:08:53.466Z,20.52
2023-01-26T17:11:25.022Z,16.95
2023-01-26T17:13:54.097Z,18.10
2023-01-26T17:16:26.554Z,17.58
2023-01-26T17:18:54.969Z,17.13
2023-01-26T17:21:23.917Z,16.08
2023-01-26T17:23:52.652Z,16.08
2023-01-26T17:27:27.743Z,15.25
2023-01-26T17:50:53.393Z,18.20
2023-01-26T17:53:59.580Z,20.75
2023-01-26T17:57:01.513Z,21.00
2023-01-26T18:03:26.671Z,17.75
2023-01-26T18:06:44.295Z,20.60
2023-01-26T18:10:08.622Z,20.55
2023-01-26T18:20:18.479Z,19.13
2023-01-26T18:29:26.015Z,18.75
2023-01-26T18:31:54.634Z,17.17
2023-01-26T18:34:46.470Z,19.27
2023-01-26T18:37:17.733Z,20.45
2023-01-26T18:39:54.309Z,17.73
2023-01-26T18:42:25.217Z,19.33
2023-01-26T18:45:04.822Z,19.27
2023-01-26T18:47:36.443Z,20.88
2023-01-26T18:50:06.501Z,17.05
2023-01-26T18:55:42.575Z,17.63
2023-01-26T19:05:52.878Z,19.20
2023-01-26T19:08:25.015Z,19.50
2023-01-26T19:11:12.371Z,18.52
2023-01-26T19:14:14.041Z,16.95
2023-01-26T19:16:50.847Z,19.33
2023-01-26T19:19:21.354Z,47.30
2023-01-26T19:40:28.633Z,14.27
2023-01-26T19:43:08.801Z,14.10
2023-01-26T19:45:39.095Z,14.30
2023-01-26T20:03:36.728Z,16.23
2023-01-26T20:06:20.673Z,18.30
2023-01-26T20:08:48.826Z,16.17
2023-01-26T20:11:17.166Z,15.00
2023-01-26T20:13:45.249Z,15.30
2023-01-26T20:16:13.825Z,17.00
2023-01-26T20:18:41.535Z,17.30
2023-01-26T20:21:09.049Z,17.25
2023-01-26T20:23:45.593Z,17.05
2023-01-26T20:26:19.828Z,19.45
2023-01-26T20:28:47.672Z,14.27
2023-01-26T20:31:18.884Z,16.05
2023-01-26T20:33:48.913Z,38.70
2023-01-26T20:36:18.645Z,35.00
2023-01-26T20:38:49.516Z,25.83
2023-01-26T20:41:19.454Z,22.77
2023-01-26T20:44:03.113Z,18.17
2023-01-26T20:46:33.443Z,17.95
2023-01-26T20:49:01.987Z,14.68
2023-01-26T20:51:33.665Z,18.15
2023-01-26T20:54:03.549Z,17.40
2023-01-26T20:56:32.283Z,17.92
2023-01-26T20:58:59.864Z,17.10
2023-01-26T21:01:27.678Z,17.08
2023-01-26T21:03:55.467Z,17.05
2023-01-26T21:06:24.187Z,17.30
2023-01-26T21:08:55.223Z,18.00
2023-01-26T21:11:25.600Z,21.50
2023-01-26T21:13:53.561Z,21.38
2023-01-26T21:16:21.489Z,19.30
2023-01-26T21:18:49.675Z,21.25
2023-01-26T21:21:17.934Z,18.77
2023-01-26T21:23:46.121Z,18.35
2023-01-26T21:26:16.067Z,16.27
2023-01-26T21:28:45.662Z,19.55
2023-01-26T21:31:15.171Z,17.05
2023-01-26T21:33:45.100Z,18.05
2023-01-26T21:36:14.240Z,23.40
2023-01-26T21:38:43.869Z,18.05
2023-01-26T21:41:27.118Z,19.83
2023-01-26T21:44:00.036Z,15.07
2023-01-26T21:46:28.080Z,14.82
2023-01-26T21:48:55.651Z,15.35
2023-01-26T21:51:41.120Z,15.02
2023-01-26T21:54:08.788Z,14.43
2023-01-26T21:56:37.107Z,16.95
2023-01-26T21:59:08.234Z,13.98
2023-01-26T22:01:37.986Z,12.85
2023-01-26T22:04:08.849Z,14.43
2023-01-26T22:06:37.727Z,12.90
2023-01-26T22:09:05.955Z,13.25
2023-01-26T22:11:33.985Z,10.45
2023-01-26T22:14:01.788Z,9.65
2023-01-26T22:16:30.837Z,11.85
2023-01-26T22:18:58.744Z,10.75
2023-01-26T22:21:26.643Z,11.27
2023-01-26T22:23:55.689Z,12.20
2023-01-26T22:26:24.165Z,12.85
2023-01-26T22:28:52.608Z,13.55
2023-01-26T22:31:23.111Z,12.05
2023-01-26T22:33:52.417Z,14.43
2023-01-26T22:36:21.372Z,15.95
2023-01-26T22:38:50.086Z,14.80
2023-01-26T22:41:20.475Z,14.10
2023-01-26T22:43:48.933Z,10.00
2023-01-26T22:46:18.170Z,11.60
2023-01-26T22:48:46.344Z,10.95
2023-01-26T22:51:18.278Z,10.27
2023-01-26T22:53:46.140Z,11.13
2023-01-26T22:56:13.903Z,13.32
2023-01-26T22:58:56.715Z,11.13
2023-01-26T23:01:25.015Z,9.98
2023-01-26T23:03:53.620Z,11.98
2023-01-26T23:06:23.337Z,11.32
2023-01-26T23:08:51.093Z,11.52
2023-01-26T23:11:20.799Z,10.38
2023-01-26T23:13:49.847Z,11.23
2023-01-26T23:16:17.685Z,11.10
2023-01-26T23:18:46.095Z,13.52
2023-01-26T23:21:15.464Z,13.77
2023-01-26T23:23:44.324Z,12.10
2023-01-26T23:26:11.850Z,9.60
2023-01-26T23:28:42.152Z,9.43
2023-01-26T23:31:10.492Z,12.38
2023-01-26T23:33:38.965Z,10.90
2023-01-26T23:36:08.465Z,11.85
2023-01-26T23:38:36.022Z,11.40
2023-01-26T23:41:05.678Z,12.70
2023-01-26T23:43:33.247Z,13.50
2023-01-26T23:46:00.862Z,14.07
2023-01-26T23:48:28.400Z,11.90
2023-01-26T23:50:56.652Z,10.63
2023-01-26T23:53:24.613Z,12.73
2023-01-26T23:55:52.205Z,11.25
2023-01-26T23:58:21.057Z,11.52
